Time;durP1;ratioP1;P1;durP2;ratioP2;P2;SDS_P1;SDS_P2;PMS_P1;PMS_P2;Temp;Humidity;BMP_temperature;BMP_pressure;BME280_temperature;BME280_humidity;BME280_pressure;Samples;Min_cycle;Max_cycle;Signal;HPM_P1;HPM_P2
2022/04/28 00:00:57;;;;;;;5.47;2.80;;;9.80;64.80;;;;;;5089185;28;20459;-68
2022/04/28 00:03:23;;;;;;;11.90;3.45;;;9.80;64.40;;;;;;5089390;28;20056;-68
2022/04/28 00:05:48;;;;;;;7.20;2.53;;;9.80;64.20;;;;;;5088368;28;20398;-69
2022/04/28 00:08:14;;;;;;;11.57;3.03;;;9.70;64.30;;;;;;5089187;28;20135;-68
2022/04/28 00:10:40;;;;;;;14.13;2.80;;;9.70;64.60;;;;;;5089255;28;20400;-69
2022/04/28 00:13:09;;;;;;;15.63;3.20;;;9.60;64.60;;;;;;5088896;28;20489;-68
2022/04/28 00:15:34;;;;;;;11.50;2.88;;;9.60;64.50;;;;;;5093231;28;20051;-69
2022/04/28 00:18:00;;;;;;;13.88;3.00;;;9.60;64.70;;;;;;5109586;28;20043;-70
2022/04/28 00:20:26;;;;;;;9.45;2.88;;;9.60;64.80;;;;;;5109361;28;20387;-69
2022/04/28 00:22:52;;;;;;;13.73;4.18;;;9.60;65.10;;;;;;5109055;28;20042;-69
2022/04/28 00:25:18;;;;;;;12.65;3.10;;;9.60;65.20;;;;;;5107193;28;20082;-69
2022/04/28 00:27:43;;;;;;;9.18;2.58;;;9.60;65.30;;;;;;5088883;28;20044;-69
2022/04/28 00:30:09;;;;;;;10.32;3.20;;;9.60;65.30;;;;;;5088393;28;20044;-69
2022/04/28 00:32:35;;;;;;;6.55;2.45;;;9.60;65.50;;;;;;5089046;28;20043;-69
2022/04/28 00:35:01;;;;;;;6.00;1.70;;;9.50;65.40;;;;;;5088826;28;20048;-69
2022/04/28 00:37:26;;;;;;;12.15;2.50;;;9.60;64.90;;;;;;5089997;28;20585;-69
2022/04/28 00:39:52;;;;;;;11.68;3.20;;;9.50;64.40;;;;;;5088958;28;20055;-68
2022/04/28 00:42:19;;;;;;;8.05;2.55;;;9.60;64.30;;;;;;5093004;28;20122;-69
2022/04/28 00:44:46;;;;;;;6.65;2.22;;;9.60;64.20;;;;;;5092888;28;20047;-70
2022/04/28 00:47:12;;;;;;;10.15;2.63;;;9.60;64.10;;;;;;5093974;28;20092;-69
2022/04/28 00:52:23;;;;;;;10.77;2.90;;;9.60;64.10;;;;;;5111078;28;20051;-70
2022/04/28 00:54:52;;;;;;;15.82;2.78;;;9.60;64.20;;;;;;5112482;28;20032;-70
2022/04/28 00:57:19;;;;;;;10.35;4.00;;;9.50;64.40;;;;;;5095182;28;20044;-69
2022/04/28 00:59:46;;;;;;;6.97;3.00;;;9.50;64.60;;;;;;5092583;28;20043;-69
2022/04/28 01:02:12;;;;;;;9.55;2.90;;;9.50;64.80;;;;;;5108732;28;20043;-69
2022/04/28 01:04:38;;;;;;;8.20;2.72;;;9.50;64.80;;;;;;5113355;28;20051;-69
2022/04/28 01:07:05;;;;;;;6.85;2.63;;;9.40;64.90;;;;;;5098321;28;20155;-69
2022/04/28 01:09:37;;;;;;;10.00;2.63;;;9.40;65.00;;;;;;5092117;28;20048;-69
2022/04/28 01:12:17;;;;;;;10.20;2.42;;;9.40;65.10;;;;;;5097253;28;20050;-69
2022/04/28 01:14:44;;;;;;;7.10;2.28;;;9.50;65.20;;;;;;5112926;28;20114;-69
2022/04/28 01:17:10;;;;;;;10.85;2.22;;;9.40;65.40;;;;;;5098300;28;20051;-69
2022/04/28 01:19:36;;;;;;;9.95;2.00;;;9.50;65.30;;;;;;5092508;28;20532;-69
2022/04/28 01:22:04;;;;;;;15.30;2.55;;;9.50;64.90;;;;;;5095635;28;20471;-69
2022/04/28 01:24:31;;;;;;;8.45;2.70;;;9.50;64.90;;;;;;5112773;28;20056;-69
2022/04/28 01:26:58;;;;;;;13.43;3.10;;;9.40;64.90;;;;;;5100494;28;20467;-69
2022/04/28 01:29:24;;;;;;;8.32;2.35;;;9.40;64.70;;;;;;5092256;28;20032;-69
2022/04/28 01:31:50;;;;;;;11.43;2.45;;;9.50;64.70;;;;;;5093268;28;20525;-69
2022/04/28 01:34:16;;;;;;;8.30;2.50;;;9.40;64.60;;;;;;5112020;28;20047;-69
2022/04/28 01:36:41;;;;;;;12.82;2.38;;;9.40;64.50;;;;;;5112135;28;20040;-69
2022/04/28 01:39:09;;;;;;;9.77;2.08;;;9.40;64.90;;;;;;5110654;28;20096;-68
2022/04/28 01:41:34;;;;;;;11.57;2.97;;;9.30;64.90;;;;;;5111873;28;20047;-70
2022/04/28 01:44:00;;;;;;;9.27;2.72;;;9.30;65.00;;;;;;5093101;28;20119;-69
2022/04/28 01:46:26;;;;;;;11.13;2.88;;;9.20;64.80;;;;;;5091757;28;20048;-69
2022/04/28 01:48:51;;;;;;;8.65;2.65;;;9.30;64.80;;;;;;5091347;28;20048;-69
2022/04/28 01:56:45;;;;;;;9.02;2.38;;;9.20;64.50;;;;;;5110245;28;20043;-70
2022/04/28 01:59:10;;;;;;;9.65;2.33;;;9.20;64.50;;;;;;5091042;28;20051;-69
2022/04/28 02:01:36;;;;;;;16.33;2.78;;;9.30;64.40;;;;;;5090252;28;20090;-67
2022/04/28 02:04:02;;;;;;;12.13;2.33;;;9.20;64.50;;;;;;5109531;28;20047;-69
2022/04/28 02:06:28;;;;;;;9.18;2.30;;;9.10;64.80;;;;;;5111723;28;20136;-67
2022/04/28 02:08:53;;;;;;;10.82;2.72;;;9.20;64.70;;;;;;5095929;28;20094;-68
2022/04/28 02:11:19;;;;;;;9.18;3.10;;;9.20;64.80;;;;;;5091389;28;20047;-67
2022/04/28 02:13:44;;;;;;;13.40;2.70;;;9.10;64.60;;;;;;5105243;28;20710;-68
2022/04/28 02:16:10;;;;;;;10.55;2.28;;;9.10;64.60;;;;;;5111417;28;20072;-67
2022/04/28 02:18:36;;;;;;;9.25;2.03;;;9.10;64.20;;;;;;5102630;28;20492;-68
2022/04/28 02:21:02;;;;;;;8.80;2.35;;;9.00;63.80;;;;;;5110939;28;20043;-67
2022/04/28 02:23:27;;;;;;;7.65;2.20;;;9.00;63.80;;;;;;5111640;28;20533;-68
2022/04/28 02:25:53;;;;;;;12.02;2.47;;;8.90;63.90;;;;;;5111242;28;20036;-69
2022/04/28 02:28:19;;;;;;;16.15;3.08;;;9.00;64.00;;;;;;5101399;28;20079;-68
2022/04/28 02:30:44;;;;;;;10.88;2.67;;;9.00;64.00;;;;;;5090968;28;20044;-68
2022/04/28 02:33:10;;;;;;;13.20;4.03;;;9.10;64.00;;;;;;5089573;28;20126;-68
2022/04/28 02:35:37;;;;;;;12.48;2.90;;;9.00;64.20;;;;;;5094956;28;20075;-69
2022/04/28 02:38:03;;;;;;;9.05;2.45;;;9.00;64.00;;;;;;5111094;28;20055;-69
2022/04/28 02:40:29;;;;;;;7.00;1.80;;;9.00;63.70;;;;;;5111020;27;20416;-69
2022/04/28 02:42:54;;;;;;;9.43;1.35;;;9.00;63.40;;;;;;5111200;28;20071;-69
2022/04/28 02:45:20;;;;;;;10.27;3.38;;;9.00;63.00;;;;;;5108803;28;20058;-70
2022/04/28 02:47:45;;;;;;;14.98;2.42;;;9.00;63.30;;;;;;5088901;28;20040;-68
2022/04/28 02:50:11;;;;;;;8.77;3.60;;;9.00;63.20;;;;;;5090396;28;20051;-69
2022/04/28 02:52:40;;;;;;;13.73;2.55;;;9.00;63.30;;;;;;5091685;28;20075;-69
2022/04/28 02:55:09;;;;;;;9.38;2.60;;;9.00;63.30;;;;;;5090585;28;20377;-69
2022/04/28 02:57:35;;;;;;;9.00;2.40;;;9.10;63.20;;;;;;5098218;28;20065;-68
2022/04/28 03:00:04;;;;;;;11.80;2.75;;;9.00;62.90;;;;;;5110856;28;20490;-68
2022/04/28 03:02:30;;;;;;;12.27;2.30;;;9.00;63.10;;;;;;5110793;28;20054;-68
2022/04/28 03:04:56;;;;;;;8.00;1.88;;;9.00;63.20;;;;;;5110625;28;20101;-68
2022/04/28 03:12:51;;;;;;;10.65;2.75;;;9.00;63.60;;;;;;5110256;27;20040;-68
2022/04/28 03:15:17;;;;;;;7.57;2.08;;;9.00;63.70;;;;;;5110306;28;20050;-68
2022/04/28 03:17:42;;;;;;;9.43;2.08;;;9.00;63.80;;;;;;5090535;28;20122;-68
2022/04/28 03:20:09;;;;;;;8.95;2.47;;;9.00;63.90;;;;;;5090122;28;20079;-67
2022/04/28 03:22:36;;;;;;;9.73;2.47;;;9.10;63.90;;;;;;5090318;28;20112;-68
2022/04/28 03:25:02;;;;;;;9.95;2.28;;;9.10;64.00;;;;;;5089784;28;20131;-69
2022/04/28 03:27:31;;;;;;;10.23;2.65;;;9.10;64.00;;;;;;5106546;28;20040;-67
2022/04/28 03:29:56;;;;;;;13.20;2.35;;;9.10;64.30;;;;;;5110313;28;20047;-67
2022/04/28 03:32:22;;;;;;;9.40;2.65;;;9.10;64.40;;;;;;5110380;28;20112;-68
2022/04/28 03:34:47;;;;;;;9.77;3.10;;;9.10;64.50;;;;;;5101703;28;20052;-68
2022/04/28 03:37:13;;;;;;;9.13;2.60;;;9.10;64.60;;;;;;5089973;28;20054;-69
2022/04/28 03:39:38;;;;;;;9.38;2.78;;;9.10;64.60;;;;;;5089529;28;20047;-68
2022/04/28 03:42:05;;;;;;;13.82;3.10;;;9.20;64.50;;;;;;5089870;28;20036;-68
2022/04/28 03:44:30;;;;;;;9.00;3.30;;;9.20;64.40;;;;;;5095365;28;20452;-67
2022/04/28 03:46:56;;;;;;;14.07;3.50;;;9.20;64.40;;;;;;5110044;28;20086;-68
2022/04/28 03:49:22;;;;;;;9.75;2.20;;;9.20;64.50;;;;;;5108929;28;20055;-68
2022/04/28 03:51:47;;;;;;;15.63;3.15;;;9.30;64.60;;;;;;5101623;28;20051;-68
2022/04/28 03:54:13;;;;;;;12.23;3.00;;;9.20;64.60;;;;;;5089640;28;20044;-69
2022/04/28 03:56:38;;;;;;;8.15;2.33;;;9.30;64.60;;;;;;5089530;28;20048;-68
2022/04/28 03:59:04;;;;;;;12.57;2.83;;;9.30;64.60;;;;;;5089394;28;20123;-68
2022/04/28 04:01:30;;;;;;;12.35;3.72;;;9.30;64.50;;;;;;5090639;28;20039;-68
2022/04/28 04:03:55;;;;;;;11.55;2.83;;;9.30;64.60;;;;;;5088377;28;20044;-68
2022/04/28 04:06:21;;;;;;;9.50;2.10;;;9.30;64.50;;;;;;5087954;28;20083;-69
2022/04/28 04:08:47;;;;;;;13.45;2.53;;;9.30;64.60;;;;;;5089486;28;20044;-68
2022/04/28 04:11:13;;;;;;;9.25;2.65;;;9.30;64.50;;;;;;5097914;28;20043;-68
2022/04/28 04:13:38;;;;;;;8.25;2.47;;;9.40;64.40;;;;;;5109665;28;20047;-68
2022/04/28 04:16:05;;;;;;;14.68;3.83;;;9.30;64.30;;;;;;5109272;28;20502;-68
2022/04/28 04:18:31;;;;;;;9.70;2.25;;;9.30;64.20;;;;;;5109616;28;20116;-68
2022/04/28 04:20:57;;;;;;;10.85;2.97;;;9.30;64.10;;;;;;5103220;28;20559;-68
2022/04/28 04:23:22;;;;;;;10.23;3.17;;;9.40;64.50;;;;;;5089054;28;20079;-68
2022/04/28 04:25:48;;;;;;;9.93;2.47;;;9.50;64.70;;;;;;5089092;28;20051;-68
2022/04/28 04:28:14;;;;;;;13.13;3.75;;;9.50;64.70;;;;;;5089185;28;20086;-68
2022/04/28 04:33:24;;;;;;;10.55;2.92;;;9.50;64.60;;;;;;5109181;28;20053;-68
2022/04/28 04:35:49;;;;;;;10.23;2.17;;;9.50;64.70;;;;;;5104567;28;20171;-67
2022/04/28 04:38:15;;;;;;;11.55;2.97;;;9.60;64.90;;;;;;5098361;28;20040;-69
2022/04/28 04:40:40;;;;;;;13.10;3.72;;;9.60;64.70;;;;;;5109478;28;20919;-69
2022/04/28 04:43:13;;;;;;;7.00;3.20;;;9.60;64.70;;;;;;5094206;28;20035;-67
2022/04/28 04:45:44;;;;;;;7.45;2.95;;;9.60;64.90;;;;;;5107023;28;20058;-68
2022/04/28 04:48:13;;;;;;;8.98;2.83;;;9.60;65.10;;;;;;5101698;28;20101;-68
2022/04/28 04:50:39;;;;;;;9.85;3.05;;;9.70;65.10;;;;;;5107318;28;20160;-66
2022/04/28 04:53:06;;;;;;;7.97;2.67;;;9.60;65.00;;;;;;5098841;28;20036;-68
2022/04/28 04:55:32;;;;;;;10.43;2.83;;;9.70;65.20;;;;;;5088916;28;20079;-68
2022/04/28 04:57:58;;;;;;;16.13;4.38;;;9.70;65.10;;;;;;5088843;28;20044;-68
2022/04/28 05:00:24;;;;;;;9.07;2.25;;;9.70;64.70;;;;;;5089713;28;20389;-68
2022/04/28 05:02:49;;;;;;;12.30;4.22;;;9.70;64.60;;;;;;5107790;28;20531;-68
2022/04/28 05:05:15;;;;;;;10.27;2.90;;;9.70;64.50;;;;;;5100748;28;20040;-67
2022/04/28 05:07:42;;;;;;;10.88;2.65;;;9.60;64.50;;;;;;5088566;28;20061;-67
2022/04/28 05:10:08;;;;;;;13.07;5.05;;;9.60;64.50;;;;;;5088895;28;20048;-66
2022/04/28 05:12:34;;;;;;;8.05;2.75;;;9.60;64.70;;;;;;5088821;28;20083;-68
2022/04/28 05:15:00;;;;;;;11.25;3.55;;;9.60;65.70;;;;;;5088729;28;20070;-68
2022/04/28 05:17:25;;;;;;;11.98;4.07;;;9.50;66.00;;;;;;5099252;28;20102;-68
2022/04/28 05:19:51;;;;;;;15.07;3.97;;;9.50;66.50;;;;;;5108033;28;20044;-68
2022/04/28 05:22:17;;;;;;;12.25;3.75;;;9.50;66.90;;;;;;5095857;28;20492;-69
2022/04/28 05:24:42;;;;;;;11.30;3.40;;;9.50;67.40;;;;;;5108510;28;20073;-68
2022/04/28 05:27:08;;;;;;;14.07;4.60;;;9.50;67.60;;;;;;5100120;28;20083;-68
2022/04/28 05:29:33;;;;;;;10.18;3.60;;;9.50;68.00;;;;;;5092474;28;20124;-68
2022/04/28 05:31:59;;;;;;;12.48;3.50;;;9.50;68.30;;;;;;5091798;28;20070;-68
2022/04/28 05:34:24;;;;;;;8.45;3.42;;;9.40;68.90;;;;;;5093865;28;20046;-68
2022/04/28 05:36:50;;;;;;;11.55;3.53;;;9.50;69.20;;;;;;5099371;28;20372;-69
2022/04/28 05:39:16;;;;;;;12.23;3.20;;;9.50;69.60;;;;;;5111858;28;20062;-69
2022/04/28 05:41:43;;;;;;;12.50;2.15;;;9.50;70.20;;;;;;5106010;28;20051;-69
2022/04/28 05:46:53;;;;;;;11.07;2.97;;;9.50;70.90;;;;;;5101960;28;20073;-69
2022/04/28 05:49:19;;;;;;;11.50;2.85;;;9.50;71.40;;;;;;5112233;28;20058;-69
2022/04/28 05:51:44;;;;;;;15.73;3.08;;;9.50;71.60;;;;;;5112111;28;20058;-69
2022/04/28 05:54:10;;;;;;;9.52;2.35;;;9.40;71.90;;;;;;5111480;28;20047;-69
2022/04/28 05:56:36;;;;;;;9.65;1.98;;;9.50;72.10;;;;;;5112126;28;20071;-69
2022/04/28 05:59:02;;;;;;;12.55;2.38;;;9.50;72.30;;;;;;5111850;28;20047;-69
2022/04/28 06:01:28;;;;;;;11.85;3.75;;;9.50;72.30;;;;;;5112045;28;20058;-68
2022/04/28 06:03:54;;;;;;;10.52;2.65;;;9.40;72.70;;;;;;5110874;27;20036;-68
2022/04/28 06:06:19;;;;;;;10.23;2.65;;;9.50;72.70;;;;;;5111534;28;20511;-68
2022/04/28 06:08:45;;;;;;;10.60;2.05;;;9.40;72.90;;;;;;5111433;28;20044;-68
2022/04/28 06:11:10;;;;;;;10.32;2.72;;;9.40;73.10;;;;;;5110471;28;21470;-69
2022/04/28 06:13:37;;;;;;;17.42;4.18;;;9.40;73.20;;;;;;5111020;28;20047;-69
2022/04/28 06:16:03;;;;;;;13.95;2.90;;;9.50;73.20;;;;;;5111341;28;20064;-68
2022/04/28 06:18:28;;;;;;;11.77;2.33;;;9.50;73.20;;;;;;5098329;28;20115;-69
2022/04/28 06:20:54;;;;;;;12.73;2.55;;;9.40;73.40;;;;;;5102708;28;20169;-69
2022/04/28 06:23:19;;;;;;;14.23;2.53;;;9.40;73.60;;;;;;5090833;28;20044;-69
2022/04/28 06:25:45;;;;;;;16.25;2.30;;;9.50;73.30;;;;;;5095915;28;20108;-67
2022/04/28 06:28:12;;;;;;;7.50;2.13;;;9.50;73.10;;;;;;5094377;28;20044;-69
2022/04/28 06:30:37;;;;;;;7.38;1.85;;;9.50;73.20;;;;;;5092112;28;20048;-67
2022/04/28 06:33:04;;;;;;;12.13;2.50;;;9.50;73.10;;;;;;5091333;28;20043;-70
2022/04/28 06:35:29;;;;;;;8.70;2.13;;;9.60;73.20;;;;;;5088139;28;20051;-70
2022/04/28 06:37:55;;;;;;;12.27;2.15;;;9.60;73.20;;;;;;5090479;28;20430;-70
2022/04/28 06:40:21;;;;;;;6.32;2.22;;;9.60;72.90;;;;;;5090454;28;20044;-70
2022/04/28 06:42:52;;;;;;;18.58;2.47;;;9.60;72.60;;;;;;5090742;28;20040;-69
2022/04/28 06:45:18;;;;;;;9.45;3.22;;;9.60;72.60;;;;;;5088781;28;20048;-69
2022/04/28 06:47:43;;;;;;;6.63;2.47;;;9.60;72.40;;;;;;5089984;28;20450;-69
2022/04/28 06:50:10;;;;;;;6.97;2.03;;;9.80;72.10;;;;;;5089185;28;20130;-69
2022/04/28 06:52:36;;;;;;;8.05;1.90;;;9.70;71.80;;;;;;5090889;28;20416;-71
2022/04/28 06:55:03;;;;;;;11.77;2.78;;;9.80;71.70;;;;;;5090488;28;20454;-70
2022/04/28 06:57:28;;;;;;;7.43;2.08;;;9.90;71.10;;;;;;5090541;28;20062;-70
2022/04/28 06:59:55;;;;;;;11.10;1.88;;;9.90;71.10;;;;;;5090034;28;20485;-70
2022/04/28 07:02:21;;;;;;;12.57;2.80;;;9.90;71.00;;;;;;5090638;28;20051;-70
2022/04/28 07:04:47;;;;;;;14.93;2.45;;;9.90;70.80;;;;;;5090509;28;20040;-70
2022/04/28 07:07:13;;;;;;;8.90;2.25;;;9.90;70.70;;;;;;5089763;28;20059;-70
2022/04/28 07:09:39;;;;;;;10.82;2.40;;;9.90;70.60;;;;;;5090466;28;20108;-70
2022/04/28 07:12:04;;;;;;;11.00;4.38;;;10.00;70.30;;;;;;5090320;28;20489;-70
2022/04/28 07:14:30;;;;;;;15.35;3.88;;;10.00;69.90;;;;;;5090319;28;20437;-70
2022/04/28 07:16:56;;;;;;;11.30;2.72;;;10.00;70.10;;;;;;5090299;28;20132;-69
2022/04/28 07:19:21;;;;;;;9.70;2.00;;;10.10;70.00;;;;;;5089754;28;20519;-70
2022/04/28 07:21:47;;;;;;;8.77;2.08;;;10.10;69.90;;;;;;5090132;28;20127;-70
2022/04/28 07:24:12;;;;;;;18.25;2.10;;;10.10;70.00;;;;;;5090035;28;20047;-70
2022/04/28 07:26:38;;;;;;;7.28;1.88;;;10.10;70.30;;;;;;5071916;28;20047;-70
2022/04/28 07:29:05;;;;;;;9.02;1.95;;;10.20;70.00;;;;;;5090077;28;20048;-70
2022/04/28 07:31:31;;;;;;;8.77;2.30;;;10.40;69.80;;;;;;5089758;28;20105;-70
2022/04/28 07:33:57;;;;;;;13.80;2.00;;;10.40;69.20;;;;;;5088877;28;20043;-70
2022/04/28 07:36:22;;;;;;;12.77;2.42;;;10.40;68.80;;;;;;5090018;28;20130;-70
2022/04/28 07:38:48;;;;;;;8.70;1.92;;;10.40;68.50;;;;;;5089943;28;20583;-70
2022/04/28 07:41:14;;;;;;;9.73;1.40;;;10.40;68.50;;;;;;5089713;28;20047;-70
2022/04/28 07:43:40;;;;;;;9.65;1.95;;;10.40;68.50;;;;;;5092540;28;20446;-70
2022/04/28 07:46:06;;;;;;;9.65;2.03;;;10.60;67.80;;;;;;5108937;28;20047;-70
2022/04/28 07:48:31;;;;;;;9.30;1.10;;;10.60;67.50;;;;;;5100482;28;20048;-70
2022/04/28 07:50:57;;;;;;;10.18;2.20;;;10.50;67.50;;;;;;5088961;28;20047;-70
2022/04/28 07:53:23;;;;;;;7.55;2.38;;;10.50;67.70;;;;;;5104787;28;20074;-71
2022/04/28 07:56:10;;;;;;;6.78;1.23;;;10.60;67.70;;;;;;5095852;28;20040;-71
2022/04/28 07:58:35;;;;;;;11.02;2.30;;;10.70;66.80;;;;;;5091783;28;20050;-71
2022/04/28 08:01:00;;;;;;;8.00;1.90;;;10.60;66.90;;;;;;5097771;28;20156;-70
2022/04/28 08:03:26;;;;;;;13.85;2.20;;;10.60;66.90;;;;;;5105950;28;20039;-69
2022/04/28 08:05:55;;;;;;;9.10;1.25;;;10.60;66.70;;;;;;5089061;28;20059;-69
2022/04/28 08:08:23;;;;;;;8.18;1.52;;;10.60;66.80;;;;;;5081230;28;20051;-71
2022/04/28 08:10:49;;;;;;;6.45;1.30;;;10.70;66.70;;;;;;5088749;28;20052;-73
2022/04/28 08:13:15;;;;;;;9.82;1.40;;;10.60;66.70;;;;;;5088814;28;20141;-68
2022/04/28 08:15:41;;;;;;;10.93;2.75;;;10.70;66.90;;;;;;5089301;28;20090;-70
2022/04/28 08:18:06;;;;;;;19.95;3.85;;;10.70;66.60;;;;;;5085038;28;20509;-70
2022/04/28 08:20:32;;;;;;;11.52;1.60;;;10.70;66.40;;;;;;5083172;28;20135;-71
2022/04/28 08:22:57;;;;;;;6.03;1.40;;;10.70;66.50;;;;;;5069743;28;20043;-70
2022/04/28 08:25:23;;;;;;;9.60;1.75;;;10.70;66.40;;;;;;5069406;28;20555;-71
2022/04/28 08:27:49;;;;;;;9.98;2.78;;;10.80;66.30;;;;;;5069291;28;20078;-69
2022/04/28 08:30:14;;;;;;;7.28;1.38;;;10.80;66.00;;;;;;5070364;28;20044;-69
2022/04/28 08:32:41;;;;;;;16.70;2.22;;;10.80;66.10;;;;;;5068440;28;20029;-69
2022/04/28 08:35:08;;;;;;;9.75;1.90;;;10.90;65.50;;;;;;5081902;28;20070;-69
2022/04/28 08:37:33;;;;;;;10.35;2.03;;;10.90;65.00;;;;;;5088068;28;20363;-70
2022/04/28 08:39:59;;;;;;;9.45;2.00;;;10.90;64.60;;;;;;5075315;28;20105;-70
2022/04/28 08:42:26;;;;;;;10.30;1.73;;;10.90;64.50;;;;;;5078858;28;20047;-69
2022/04/28 08:44:56;;;;;;;9.63;1.88;;;11.10;64.00;;;;;;5076815;28;20111;-69
2022/04/28 08:47:21;;;;;;;14.23;2.40;;;11.10;64.30;;;;;;5068776;28;20098;-69
2022/04/28 08:49:50;;;;;;;13.25;3.75;;;11.10;64.60;;;;;;5078728;28;20037;-69
2022/04/28 08:52:17;;;;;;;10.95;2.05;;;11.20;64.40;;;;;;5072842;28;20501;-70
2022/04/28 08:54:45;;;;;;;10.57;1.73;;;11.20;64.50;;;;;;5069596;28;20472;-69
2022/04/28 08:57:13;;;;;;;13.48;2.22;;;11.20;64.10;;;;;;5076453;28;20412;-69
2022/04/28 08:59:40;;;;;;;11.35;2.00;;;11.20;64.00;;;;;;5070360;28;20071;-70
2022/04/28 09:02:06;;;;;;;9.35;1.75;;;11.30;63.70;;;;;;5071659;28;20040;-70
2022/04/28 09:04:32;;;;;;;13.85;2.15;;;11.30;63.80;;;;;;5070741;28;20067;-70
2022/04/28 09:06:58;;;;;;;14.98;3.08;;;11.30;63.80;;;;;;5071225;28;20048;-70
2022/04/28 09:09:26;;;;;;;5.15;1.40;;;11.20;63.50;;;;;;5072150;28;20052;-69
2022/04/28 09:11:56;;;;;;;13.13;2.75;;;11.20;63.70;;;;;;5076038;28;20064;-69
2022/04/28 09:14:23;;;;;;;11.00;3.42;;;11.20;63.70;;;;;;5071753;28;20109;-70
2022/04/28 09:16:49;;;;;;;11.13;2.22;;;11.20;63.90;;;;;;5086434;28;20047;-70
2022/04/28 09:19:24;;;;;;;9.48;1.95;;;11.20;63.90;;;;;;5090288;28;20040;-70
2022/04/28 09:21:55;;;;;;;13.68;2.35;;;11.20;63.60;;;;;;5090624;28;20052;-70
2022/04/28 09:24:22;;;;;;;9.68;1.90;;;11.20;63.60;;;;;;5073175;28;20063;-70
2022/04/28 09:26:50;;;;;;;8.82;2.65;;;11.20;62.90;;;;;;5088437;28;20036;-70
2022/04/28 09:29:18;;;;;;;7.53;1.88;;;11.30;63.00;;;;;;5087973;28;20059;-71
2022/04/28 09:31:45;;;;;;;9.63;1.73;;;11.20;62.90;;;;;;5084905;28;20094;-69
2022/04/28 09:34:16;;;;;;;9.65;1.90;;;11.30;62.20;;;;;;5071814;28;20056;-69
2022/04/28 09:36:44;;;;;;;12.02;1.90;;;11.30;62.30;;;;;;5072844;28;20497;-69
2022/04/28 09:44:56;;;;;;;10.40;2.05;;;11.40;63.30;;;;;;5088182;28;20055;-69
2022/04/28 09:47:24;;;;;;;9.63;2.05;;;11.50;63.00;;;;;;5076695;28;20048;-69
2022/04/28 09:49:55;;;;;;;7.72;2.22;;;11.40;63.00;;;;;;5075131;28;20037;-69
2022/04/28 09:52:28;;;;;;;16.35;2.30;;;11.50;63.10;;;;;;5071586;28;20509;-69
2022/04/28 09:54:56;;;;;;;8.15;1.52;;;11.60;63.00;;;;;;5077492;28;20075;-69
2022/04/28 09:57:23;;;;;;;6.88;1.75;;;11.50;63.00;;;;;;5080742;28;20043;-69
2022/04/28 09:59:53;;;;;;;10.65;2.17;;;11.60;62.60;;;;;;5072043;28;20059;-68
2022/04/28 10:02:20;;;;;;;11.73;3.17;;;11.60;62.90;;;;;;5075981;28;20066;-69
2022/04/28 10:04:47;;;;;;;14.65;2.55;;;11.80;62.50;;;;;;5073604;28;20067;-69
2022/04/28 10:07:16;;;;;;;11.73;2.65;;;11.80;62.60;;;;;;5079789;28;20048;-68
2022/04/28 10:09:45;;;;;;;7.25;1.52;;;11.80;62.60;;;;;;5091404;28;20126;-68
2022/04/28 10:12:12;;;;;;;9.30;3.15;;;11.80;62.50;;;;;;5076239;28;20041;-68
2022/04/28 10:14:42;;;;;;;13.18;2.65;;;11.80;62.10;;;;;;5090753;28;20520;-68
2022/04/28 10:17:15;;;;;;;8.20;1.83;;;11.80;61.80;;;;;;5091138;28;20443;-69
2022/04/28 10:19:44;;;;;;;9.25;3.58;;;11.80;61.90;;;;;;5089724;28;20059;-68
2022/04/28 10:22:17;;;;;;;12.35;3.30;;;11.90;61.70;;;;;;5105902;28;20048;-68
2022/04/28 10:33:19;;;;;;;7.50;1.63;;;12.10;61.30;;;;;;5076683;28;20163;-68
2022/04/28 10:35:49;;;;;;;15.70;3.35;;;12.10;61.20;;;;;;5085320;28;20036;-68
2022/04/28 10:38:21;;;;;;;10.90;2.78;;;12.10;61.10;;;;;;5080721;28;20045;-68
2022/04/28 10:41:03;;;;;;;7.72;2.03;;;12.10;61.30;;;;;;5086037;28;20043;-68
2022/04/28 10:43:38;;;;;;;13.43;2.28;;;12.20;61.20;;;;;;5081508;28;20497;-68
2022/04/28 10:46:07;;;;;;;11.73;1.90;;;12.30;61.10;;;;;;5079641;28;20120;-69
2022/04/28 10:48:35;;;;;;;7.25;1.85;;;12.40;60.80;;;;;;5070624;28;20524;-68
2022/04/28 10:51:04;;;;;;;13.27;2.30;;;12.50;60.50;;;;;;5070713;28;20055;-68
2022/04/28 10:53:30;;;;;;;13.02;2.80;;;12.40;60.20;;;;;;5071549;28;20044;-67
2022/04/28 10:55:56;;;;;;;13.38;2.25;;;12.40;60.30;;;;;;5087109;28;20124;-68
2022/04/28 10:58:26;;;;;;;17.17;2.53;;;12.40;60.40;;;;;;5076779;28;20131;-68
2022/04/28 11:00:58;;;;;;;11.25;2.88;;;12.40;60.70;;;;;;5089196;28;20508;-69
2022/04/28 11:03:53;;;;;;;10.88;2.22;;;12.50;60.70;;;;;;5074783;28;20125;-68
2022/04/28 11:06:37;;;;;;;11.52;2.10;;;12.50;60.30;;;;;;5072980;28;20048;-68
2022/04/28 11:09:08;;;;;;;8.73;1.85;;;12.50;60.00;;;;;;5071719;28;20055;-69
2022/04/28 11:11:45;;;;;;;8.07;1.73;;;12.40;60.50;;;;;;5080963;28;20048;-68
2022/04/28 11:14:12;;;;;;;12.98;2.47;;;12.50;60.10;;;;;;5087568;28;20058;-70
2022/04/28 11:16:40;;;;;;;10.32;2.30;;;12.40;60.40;;;;;;5090124;28;20055;-70
2022/04/28 11:19:07;;;;;;;10.40;2.05;;;12.40;60.40;;;;;;5090293;28;20450;-68
2022/04/28 11:21:35;;;;;;;12.63;4.05;;;12.60;60.00;;;;;;5069750;28;20361;-68
2022/04/28 11:24:03;;;;;;;13.13;2.05;;;12.40;60.60;;;;;;5068461;28;20517;-69
2022/04/28 11:26:29;;;;;;;9.55;2.22;;;12.50;60.60;;;;;;5103482;28;20123;-69
2022/04/28 11:28:55;;;;;;;6.80;1.90;;;12.60;60.00;;;;;;5089417;28;20070;-70
2022/04/28 11:31:20;;;;;;;15.60;2.83;;;12.60;59.50;;;;;;5078066;28;20465;-69
2022/04/28 11:33:49;;;;;;;8.52;1.83;;;12.60;59.90;;;;;;5083369;28;20048;-69
2022/04/28 11:36:16;;;;;;;9.00;1.95;;;12.60;60.00;;;;;;5075371;28;20036;-69
2022/04/28 11:38:49;;;;;;;11.90;2.10;;;12.60;60.20;;;;;;5087520;28;20090;-68
2022/04/28 11:41:15;;;;;;;10.35;2.28;;;12.60;59.50;;;;;;5086585;28;20689;-66
2022/04/28 11:43:40;;;;;;;12.43;2.60;;;12.60;59.60;;;;;;5083541;28;20130;-69
2022/04/28 11:46:07;;;;;;;9.50;1.95;;;12.70;59.20;;;;;;5088681;28;20040;-72
2022/04/28 11:48:34;;;;;;;9.23;3.05;;;12.70;59.40;;;;;;5087619;28;20048;-69
2022/04/28 11:51:02;;;;;;;11.45;2.80;;;12.80;59.50;;;;;;5082728;28;20086;-68
2022/04/28 11:53:39;;;;;;;13.23;3.00;;;12.90;59.40;;;;;;5079843;28;20044;-68
2022/04/28 11:56:33;;;;;;;7.20;2.35;;;13.10;58.70;;;;;;5089207;28;20040;-68
2022/04/28 11:59:02;;;;;;;10.43;2.47;;;13.00;58.30;;;;;;5071575;28;20051;-68
2022/04/28 12:01:31;;;;;;;12.82;2.35;;;12.90;58.90;;;;;;5087732;28;20055;-68
2022/04/28 12:03:58;;;;;;;12.68;2.40;;;13.00;58.70;;;;;;5088964;28;20412;-68
2022/04/28 12:06:25;;;;;;;8.23;2.38;;;13.10;58.00;;;;;;5069389;28;20056;-68
2022/04/28 12:08:56;;;;;;;16.67;2.50;;;13.00;58.30;;;;;;5067366;28;20079;-68
2022/04/28 12:14:27;;;;;;;9.68;2.10;;;12.90;58.90;;;;;;5068692;28;20052;-69
2022/04/28 12:19:54;;;;;;;14.52;2.53;;;12.80;58.70;;;;;;5068699;28;20052;-69
2022/04/28 12:22:27;;;;;;;12.00;1.92;;;12.80;59.00;;;;;;5074525;28;20052;-68
2022/04/28 12:24:52;;;;;;;9.07;2.00;;;12.90;59.00;;;;;;5087924;28;20047;-69
2022/04/28 12:27:18;;;;;;;9.52;1.80;;;12.90;59.00;;;;;;5069497;28;20041;-68
2022/04/28 12:29:54;;;;;;;12.75;2.47;;;12.90;58.70;;;;;;5068583;28;20063;-68
2022/04/28 12:32:21;;;;;;;14.45;2.55;;;12.90;58.60;;;;;;5067956;28;20047;-69
2022/04/28 12:34:58;;;;;;;12.82;1.95;;;12.90;59.10;;;;;;5070672;28;20140;-68
2022/04/28 12:37:26;;;;;;;9.13;2.03;;;13.10;58.40;;;;;;5086051;28;20039;-69
2022/04/28 12:40:01;;;;;;;11.57;2.15;;;13.00;58.40;;;;;;5073356;28;20044;-69
2022/04/28 12:42:43;;;;;;;11.32;2.00;;;13.10;57.70;;;;;;5073332;28;20753;-68
2022/04/28 12:45:09;;;;;;;8.80;2.38;;;12.90;58.20;;;;;;5073638;28;20567;-68
2022/04/28 12:47:37;;;;;;;11.82;2.47;;;12.90;57.90;;;;;;5072895;28;20430;-69
2022/04/28 12:50:23;;;;;;;8.05;1.83;;;12.80;58.70;;;;;;5073704;28;20044;-68
2022/04/28 12:52:49;;;;;;;13.60;2.33;;;13.00;58.40;;;;;;5079627;28;20093;-69
2022/04/28 12:55:17;;;;;;;7.78;1.73;;;13.00;58.00;;;;;;5085175;28;20035;-68
2022/04/28 12:57:43;;;;;;;8.73;2.10;;;13.00;58.30;;;;;;5076881;28;20109;-67
2022/04/28 13:00:10;;;;;;;11.18;2.40;;;13.10;58.70;;;;;;5073570;28;20048;-68
2022/04/28 13:02:36;;;;;;;9.88;2.20;;;13.20;57.90;;;;;;5079505;28;20055;-68
2022/04/28 13:05:12;;;;;;;14.45;1.90;;;13.20;57.70;;;;;;5091983;28;20128;-67
2022/04/28 13:07:40;;;;;;;6.70;1.95;;;13.10;58.00;;;;;;5089679;28;20690;-69
2022/04/28 13:10:06;;;;;;;7.20;1.90;;;13.10;57.90;;;;;;5089300;28;20052;-69
2022/04/28 13:12:32;;;;;;;16.27;2.28;;;13.10;57.80;;;;;;5073116;28;20053;-69
2022/04/28 13:14:58;;;;;;;7.75;1.85;;;13.10;58.00;;;;;;5074874;28;20047;-69
2022/04/28 13:17:24;;;;;;;10.90;1.67;;;13.10;58.10;;;;;;5083735;28;20131;-69
2022/04/28 13:19:50;;;;;;;12.50;2.42;;;13.20;57.90;;;;;;5073076;28;20607;-68
2022/04/28 13:22:16;;;;;;;8.25;1.88;;;13.10;57.80;;;;;;5074603;28;20413;-69
2022/04/28 13:24:41;;;;;;;9.57;2.38;;;13.10;58.10;;;;;;5090890;28;20044;-70